Terminal Aerodrome Forecast
Issued by NWS

Home | Current Version | Previous Version | Text Only | Print | Product List | Glossary On
Versions: 1 2 3 4 5 6 7 8 9 10 11 12 13 14 15 16
000
FTAK31 PANC 241139
TAFAAQ
TAF
PAAQ 241139Z 2412/2512 11020G33KT P6SM OVC100
     FM241800 13030G45KT P6SM BKN060 OVC080
     FM242200 14035G50KT P6SM VCSH OVC060
     FM250400 14012G22KT 6SM -SHRA BR SCT010 BKN025=

USA.gov is the U.S. government's official web portal to all federal, state and local government web resources and services.